sensor_id;sensor_type;location;lat;lon;timestamp;temperature;humidity
8152;DHT22;4117;53.622;9.958;2022-07-06T00:02:19;15.20;1.00
8152;DHT22;4117;53.622;9.958;2022-07-06T00:04:47;15.20;1.00
8152;DHT22;4117;53.622;9.958;2022-07-06T00:07:14;15.20;1.00
8152;DHT22;4117;53.622;9.958;2022-07-06T00:09:41;15.10;1.00
8152;DHT22;4117;53.622;9.958;2022-07-06T00:12:08;15.10;1.00
8152;DHT22;4117;53.622;9.958;2022-07-06T00:14:35;15.10;1.00
8152;DHT22;4117;53.622;9.958;2022-07-06T00:17:03;15.10;1.00
8152;DHT22;4117;53.622;9.958;2022-07-06T00:19:29;15.10;1.00
8152;DHT22;4117;53.622;9.958;2022-07-06T00:21:58;15.10;1.00
8152;DHT22;4117;53.622;9.958;2022-07-06T00:24:26;15.10;1.00
8152;DHT22;4117;53.622;9.958;2022-07-06T00:26:52;15.10;1.00
8152;DHT22;4117;53.622;9.958;2022-07-06T00:29:19;15.10;1.00
8152;DHT22;4117;53.622;9.958;2022-07-06T00:31:47;15.10;1.00
8152;DHT22;4117;53.622;9.958;2022-07-06T00:34:14;15.10;1.00
8152;DHT22;4117;53.622;9.958;2022-07-06T00:36:40;15.10;1.00
8152;DHT22;4117;53.622;9.958;2022-07-06T00:39:09;15.00;1.00
8152;DHT22;4117;53.622;9.958;2022-07-06T00:41:36;15.00;1.00
8152;DHT22;4117;53.622;9.958;2022-07-06T00:44:07;15.00;1.00
8152;DHT22;4117;53.622;9.958;2022-07-06T00:46:34;15.00;1.00
8152;DHT22;4117;53.622;9.958;2022-07-06T00:49:01;15.00;1.00
8152;DHT22;4117;53.622;9.958;2022-07-06T00:51:29;15.10;1.00
8152;DHT22;4117;53.622;9.958;2022-07-06T00:53:59;15.00;1.00
8152;DHT22;4117;53.622;9.958;2022-07-06T00:56:30;15.00;1.00
8152;DHT22;4117;53.622;9.958;2022-07-06T00:58:57;15.00;1.00
8152;DHT22;4117;53.622;9.958;2022-07-06T01:01:24;15.00;1.00
8152;DHT22;4117;53.622;9.958;2022-07-06T01:03:51;15.00;1.00
8152;DHT22;4117;53.622;9.958;2022-07-06T01:06:18;14.90;1.00
8152;DHT22;4117;53.622;9.958;2022-07-06T01:08:45;15.00;1.00
8152;DHT22;4117;53.622;9.958;2022-07-06T01:11:13;14.90;1.00
8152;DHT22;4117;53.622;9.958;2022-07-06T01:13:41;14.90;1.00
8152;DHT22;4117;53.622;9.958;2022-07-06T01:16:08;14.90;1.00
8152;DHT22;4117;53.622;9.958;2022-07-06T01:18:36;14.90;1.00
8152;DHT22;4117;53.622;9.958;2022-07-06T01:21:10;14.90;1.00
8152;DHT22;4117;53.622;9.958;2022-07-06T01:23:41;14.80;1.00
8152;DHT22;4117;53.622;9.958;2022-07-06T01:26:10;14.80;1.00
8152;DHT22;4117;53.622;9.958;2022-07-06T01:28:37;14.80;1.00
8152;DHT22;4117;53.622;9.958;2022-07-06T01:31:04;14.80;1.00
8152;DHT22;4117;53.622;9.958;2022-07-06T01:33:31;14.80;1.00
8152;DHT22;4117;53.622;9.958;2022-07-06T01:35:58;14.80;1.00
8152;DHT22;4117;53.622;9.958;2022-07-06T01:38:27;14.80;1.00
8152;DHT22;4117;53.622;9.958;2022-07-06T01:40:54;14.80;1.00
8152;DHT22;4117;53.622;9.958;2022-07-06T01:43:21;14.80;1.00
8152;DHT22;4117;53.622;9.958;2022-07-06T01:45:48;14.80;1.00
8152;DHT22;4117;53.622;9.958;2022-07-06T01:48:15;14.80;1.00
8152;DHT22;4117;53.622;9.958;2022-07-06T01:50:42;14.80;1.00
8152;DHT22;4117;53.622;9.958;2022-07-06T01:53:09;14.80;1.00
8152;DHT22;4117;53.622;9.958;2022-07-06T01:55:37;14.80;1.00
8152;DHT22;4117;53.622;9.958;2022-07-06T01:58:05;14.70;1.00
8152;DHT22;4117;53.622;9.958;2022-07-06T02:00:31;14.80;1.00
8152;DHT22;4117;53.622;9.958;2022-07-06T02:02:58;14.80;1.00
8152;DHT22;4117;53.622;9.958;2022-07-06T02:05:25;14.70;1.00
8152;DHT22;4117;53.622;9.958;2022-07-06T02:07:52;14.80;1.00
8152;DHT22;4117;53.622;9.958;2022-07-06T02:10:19;14.80;1.00
8152;DHT22;4117;53.622;9.958;2022-07-06T02:12:47;14.70;1.00
8152;DHT22;4117;53.622;9.958;2022-07-06T02:15:14;14.70;1.00
8152;DHT22;4117;53.622;9.958;2022-07-06T02:17:41;14.70;1.00
8152;DHT22;4117;53.622;9.958;2022-07-06T02:20:09;14.70;1.00
8152;DHT22;4117;53.622;9.958;2022-07-06T02:22:36;14.70;1.00
8152;DHT22;4117;53.622;9.958;2022-07-06T02:25:03;14.70;1.00
8152;DHT22;4117;53.622;9.958;2022-07-06T02:27:30;14.70;1.00
8152;DHT22;4117;53.622;9.958;2022-07-06T02:29:59;14.70;1.00
8152;DHT22;4117;53.622;9.958;2022-07-06T02:32:25;14.70;1.00
8152;DHT22;4117;53.622;9.958;2022-07-06T02:34:52;14.70;1.00
8152;DHT22;4117;53.622;9.958;2022-07-06T02:37:19;14.60;1.00
8152;DHT22;4117;53.622;9.958;2022-07-06T02:39:46;14.60;1.00
8152;DHT22;4117;53.622;9.958;2022-07-06T02:42:13;14.70;1.00
8152;DHT22;4117;53.622;9.958;2022-07-06T02:44:40;14.60;1.00
8152;DHT22;4117;53.622;9.958;2022-07-06T02:47:08;14.60;1.00
8152;DHT22;4117;53.622;9.958;2022-07-06T02:49:35;14.50;1.00
8152;DHT22;4117;53.622;9.958;2022-07-06T02:52:02;14.60;1.00
8152;DHT22;4117;53.622;9.958;2022-07-06T02:54:29;14.60;1.00
8152;DHT22;4117;53.622;9.958;2022-07-06T02:56:56;14.60;1.00
8152;DHT22;4117;53.622;9.958;2022-07-06T02:59:23;14.40;1.00
8152;DHT22;4117;53.622;9.958;2022-07-06T03:01:49;14.40;1.00
8152;DHT22;4117;53.622;9.958;2022-07-06T03:04:18;14.50;1.00
8152;DHT22;4117;53.622;9.958;2022-07-06T03:06:44;14.50;1.00
8152;DHT22;4117;53.622;9.958;2022-07-06T03:09:11;14.50;1.00
8152;DHT22;4117;53.622;9.958;2022-07-06T03:11:38;14.50;1.00
8152;DHT22;4117;53.622;9.958;2022-07-06T03:14:06;14.50;1.00
8152;DHT22;4117;53.622;9.958;2022-07-06T03:16:33;14.50;1.00
8152;DHT22;4117;53.622;9.958;2022-07-06T03:19:00;14.50;1.00
8152;DHT22;4117;53.622;9.958;2022-07-06T03:21:28;14.50;1.00
8152;DHT22;4117;53.622;9.958;2022-07-06T03:23:55;14.50;1.00
8152;DHT22;4117;53.622;9.958;2022-07-06T03:26:22;14.50;1.00
8152;DHT22;4117;53.622;9.958;2022-07-06T03:28:48;14.50;1.00
8152;DHT22;4117;53.622;9.958;2022-07-06T03:31:15;14.50;1.00
8152;DHT22;4117;53.622;9.958;2022-07-06T03:33:42;14.50;1.00
8152;DHT22;4117;53.622;9.958;2022-07-06T03:36:09;14.50;1.00
8152;DHT22;4117;53.622;9.958;2022-07-06T03:38:37;14.40;1.00
8152;DHT22;4117;53.622;9.958;2022-07-06T03:41:04;14.40;1.00
8152;DHT22;4117;53.622;9.958;2022-07-06T03:43:31;14.40;1.00
8152;DHT22;4117;53.622;9.958;2022-07-06T03:45:58;14.50;1.00
8152;DHT22;4117;53.622;9.958;2022-07-06T03:48:25;14.40;1.00
8152;DHT22;4117;53.622;9.958;2022-07-06T03:50:52;14.40;1.00
8152;DHT22;4117;53.622;9.958;2022-07-06T03:53:19;14.40;1.00
8152;DHT22;4117;53.622;9.958;2022-07-06T03:55:47;14.40;1.00
8152;DHT22;4117;53.622;9.958;2022-07-06T03:58:34;14.40;1.00
8152;DHT22;4117;53.622;9.958;2022-07-06T04:01:01;14.40;2.00
8152;DHT22;4117;53.622;9.958;2022-07-06T04:03:28;14.40;1.00
8152;DHT22;4117;53.622;9.958;2022-07-06T04:05:54;14.40;1.00
8152;DHT22;4117;53.622;9.958;2022-07-06T04:08:21;14.40;1.00
8152;DHT22;4117;53.622;9.958;2022-07-06T04:10:50;14.40;2.40
8152;DHT22;4117;53.622;9.958;2022-07-06T04:13:16;14.40;1.20
8152;DHT22;4117;53.622;9.958;2022-07-06T04:15:43;14.40;1.00
8152;DHT22;4117;53.622;9.958;2022-07-06T04:18:10;14.40;1.50
8152;DHT22;4117;53.622;9.958;2022-07-06T04:20:37;14.40;1.00
8152;DHT22;4117;53.622;9.958;2022-07-06T04:23:04;14.30;1.00
8152;DHT22;4117;53.622;9.958;2022-07-06T04:25:31;14.20;1.00
8152;DHT22;4117;53.622;9.958;2022-07-06T04:27:59;14.20;1.00
8152;DHT22;4117;53.622;9.958;2022-07-06T04:30:26;14.30;1.00
8152;DHT22;4117;53.622;9.958;2022-07-06T04:32:53;14.30;1.00
8152;DHT22;4117;53.622;9.958;2022-07-06T04:35:21;14.30;1.00
8152;DHT22;4117;53.622;9.958;2022-07-06T04:37:48;14.30;1.00
8152;DHT22;4117;53.622;9.958;2022-07-06T04:40:15;14.40;1.00
8152;DHT22;4117;53.622;9.958;2022-07-06T04:42:42;14.40;1.00
8152;DHT22;4117;53.622;9.958;2022-07-06T04:45:11;14.40;1.00
8152;DHT22;4117;53.622;9.958;2022-07-06T04:47:37;14.40;1.00
8152;DHT22;4117;53.622;9.958;2022-07-06T04:50:05;14.40;1.00
8152;DHT22;4117;53.622;9.958;2022-07-06T04:52:32;14.40;1.00
8152;DHT22;4117;53.622;9.958;2022-07-06T04:54:59;14.40;1.00
8152;DHT22;4117;53.622;9.958;2022-07-06T04:57:26;14.30;1.00
8152;DHT22;4117;53.622;9.958;2022-07-06T04:59:55;14.30;1.00
8152;DHT22;4117;53.622;9.958;2022-07-06T05:02:23;14.30;1.00
8152;DHT22;4117;53.622;9.958;2022-07-06T05:04:50;14.30;1.00
8152;DHT22;4117;53.622;9.958;2022-07-06T05:07:17;14.30;1.00
8152;DHT22;4117;53.622;9.958;2022-07-06T05:09:44;14.30;1.00
8152;DHT22;4117;53.622;9.958;2022-07-06T05:12:11;14.30;1.00
8152;DHT22;4117;53.622;9.958;2022-07-06T05:14:38;14.40;1.00
8152;DHT22;4117;53.622;9.958;2022-07-06T05:17:05;14.40;1.00
8152;DHT22;4117;53.622;9.958;2022-07-06T05:19:33;14.40;1.00
8152;DHT22;4117;53.622;9.958;2022-07-06T05:22:00;14.40;1.00
8152;DHT22;4117;53.622;9.958;2022-07-06T05:24:27;14.40;1.00
8152;DHT22;4117;53.622;9.958;2022-07-06T05:26:54;14.40;1.00
8152;DHT22;4117;53.622;9.958;2022-07-06T05:29:21;14.40;1.10
8152;DHT22;4117;53.622;9.958;2022-07-06T05:31:47;14.40;1.00
8152;DHT22;4117;53.622;9.958;2022-07-06T05:34:15;14.40;1.00
8152;DHT22;4117;53.622;9.958;2022-07-06T05:36:43;14.40;1.00
8152;DHT22;4117;53.622;9.958;2022-07-06T05:39:10;14.40;1.00
8152;DHT22;4117;53.622;9.958;2022-07-06T05:41:37;14.40;1.00
8152;DHT22;4117;53.622;9.958;2022-07-06T05:44:04;14.40;1.00
8152;DHT22;4117;53.622;9.958;2022-07-06T05:46:31;14.40;1.00
8152;DHT22;4117;53.622;9.958;2022-07-06T05:48:58;14.40;1.00
8152;DHT22;4117;53.622;9.958;2022-07-06T05:51:43;14.40;1.20
8152;DHT22;4117;53.622;9.958;2022-07-06T05:54:10;14.50;1.90
8152;DHT22;4117;53.622;9.958;2022-07-06T05:56:37;14.50;3.50
8152;DHT22;4117;53.622;9.958;2022-07-06T05:59:04;14.50;4.40
8152;DHT22;4117;53.622;9.958;2022-07-06T06:01:31;14.40;8.00
8152;DHT22;4117;53.622;9.958;2022-07-06T06:03:58;14.40;10.00
8152;DHT22;4117;53.622;9.958;2022-07-06T06:06:25;14.40;10.50
8152;DHT22;4117;53.622;9.958;2022-07-06T06:08:53;14.30;11.90
8152;DHT22;4117;53.622;9.958;2022-07-06T06:11:20;14.30;17.00
8152;DHT22;4117;53.622;9.958;2022-07-06T06:13:47;14.20;18.80
8152;DHT22;4117;53.622;9.958;2022-07-06T06:16:14;14.30;21.30
8152;DHT22;4117;53.622;9.958;2022-07-06T06:18:41;14.20;18.80
8152;DHT22;4117;53.622;9.958;2022-07-06T06:21:08;14.30;19.70
8152;DHT22;4117;53.622;9.958;2022-07-06T06:23:35;14.20;19.70
8152;DHT22;4117;53.622;9.958;2022-07-06T06:26:03;14.20;19.90
8152;DHT22;4117;53.622;9.958;2022-07-06T06:28:30;14.30;20.80
8152;DHT22;4117;53.622;9.958;2022-07-06T06:30:57;14.30;20.70
8152;DHT22;4117;53.622;9.958;2022-07-06T06:33:24;14.30;21.70
8152;DHT22;4117;53.622;9.958;2022-07-06T06:35:52;14.30;19.10
8152;DHT22;4117;53.622;9.958;2022-07-06T06:38:21;14.30;22.50
8152;DHT22;4117;53.622;9.958;2022-07-06T06:40:51;14.30;24.60
8152;DHT22;4117;53.622;9.958;2022-07-06T06:43:20;14.20;19.40
8152;DHT22;4117;53.622;9.958;2022-07-06T06:45:47;14.20;21.40
8152;DHT22;4117;53.622;9.958;2022-07-06T06:48:14;14.20;20.10
8152;DHT22;4117;53.622;9.958;2022-07-06T06:50:43;14.30;23.90
8152;DHT22;4117;53.622;9.958;2022-07-06T06:53:10;14.30;18.80
8152;DHT22;4117;53.622;9.958;2022-07-06T06:55:37;14.20;19.30
8152;DHT22;4117;53.622;9.958;2022-07-06T06:58:04;14.20;18.70
8152;DHT22;4117;53.622;9.958;2022-07-06T07:00:32;14.20;18.70
8152;DHT22;4117;53.622;9.958;2022-07-06T07:02:59;14.20;18.80
8152;DHT22;4117;53.622;9.958;2022-07-06T07:05:26;14.20;18.70
8152;DHT22;4117;53.622;9.958;2022-07-06T07:07:53;14.20;18.70
8152;DHT22;4117;53.622;9.958;2022-07-06T07:10:24;14.20;18.70
8152;DHT22;4117;53.622;9.958;2022-07-06T07:12:51;14.30;19.40
8152;DHT22;4117;53.622;9.958;2022-07-06T07:15:18;14.30;18.80
8152;DHT22;4117;53.622;9.958;2022-07-06T07:17:46;14.30;18.80
8152;DHT22;4117;53.622;9.958;2022-07-06T07:20:13;14.30;18.90
8152;DHT22;4117;53.622;9.958;2022-07-06T07:22:40;14.30;18.80
8152;DHT22;4117;53.622;9.958;2022-07-06T07:25:08;14.40;18.90
8152;DHT22;4117;53.622;9.958;2022-07-06T07:27:35;14.40;20.50
8152;DHT22;4117;53.622;9.958;2022-07-06T07:30:02;14.40;19.10
8152;DHT22;4117;53.622;9.958;2022-07-06T07:32:29;14.40;18.90
8152;DHT22;4117;53.622;9.958;2022-07-06T07:34:57;14.40;18.90
8152;DHT22;4117;53.622;9.958;2022-07-06T07:37:24;14.40;18.90
8152;DHT22;4117;53.622;9.958;2022-07-06T07:39:51;14.40;16.50
8152;DHT22;4117;53.622;9.958;2022-07-06T07:42:18;14.40;18.90
8152;DHT22;4117;53.622;9.958;2022-07-06T07:44:45;14.40;15.10
8152;DHT22;4117;53.622;9.958;2022-07-06T07:47:12;14.50;15.90
8152;DHT22;4117;53.622;9.958;2022-07-06T07:49:39;14.40;11.60
8152;DHT22;4117;53.622;9.958;2022-07-06T07:52:07;14.40;9.90
8152;DHT22;4117;53.622;9.958;2022-07-06T07:54:34;14.40;11.10
8152;DHT22;4117;53.622;9.958;2022-07-06T07:57:01;14.50;8.80
8152;DHT22;4117;53.622;9.958;2022-07-06T07:59:28;14.50;8.20
8152;DHT22;4117;53.622;9.958;2022-07-06T08:01:55;14.50;8.20
8152;DHT22;4117;53.622;9.958;2022-07-06T08:04:22;14.50;7.40
8152;DHT22;4117;53.622;9.958;2022-07-06T08:06:49;14.50;8.20
8152;DHT22;4117;53.622;9.958;2022-07-06T08:09:17;14.50;8.20
8152;DHT22;4117;53.622;9.958;2022-07-06T08:11:44;14.50;8.10
8152;DHT22;4117;53.622;9.958;2022-07-06T08:14:11;14.60;6.70
8152;DHT22;4117;53.622;9.958;2022-07-06T08:16:39;14.70;5.40
8152;DHT22;4117;53.622;9.958;2022-07-06T08:19:06;14.70;6.20
8152;DHT22;4117;53.622;9.958;2022-07-06T08:21:33;14.70;4.20
8152;DHT22;4117;53.622;9.958;2022-07-06T08:24:00;14.70;5.50
8152;DHT22;4117;53.622;9.958;2022-07-06T08:26:28;14.70;7.20
8152;DHT22;4117;53.622;9.958;2022-07-06T08:28:56;14.70;8.30
8152;DHT22;4117;53.622;9.958;2022-07-06T08:31:22;14.70;8.40
8152;DHT22;4117;53.622;9.958;2022-07-06T08:33:49;14.60;8.20
8152;DHT22;4117;53.622;9.958;2022-07-06T08:36:18;14.60;8.20
8152;DHT22;4117;53.622;9.958;2022-07-06T08:38:45;14.60;8.30
8152;DHT22;4117;53.622;9.958;2022-07-06T08:41:14;14.60;8.30
8152;DHT22;4117;53.622;9.958;2022-07-06T08:43:43;14.60;8.30
8152;DHT22;4117;53.622;9.958;2022-07-06T08:46:12;14.60;11.10
8152;DHT22;4117;53.622;9.958;2022-07-06T08:48:40;14.70;12.30
8152;DHT22;4117;53.622;9.958;2022-07-06T08:51:07;14.70;14.60
8152;DHT22;4117;53.622;9.958;2022-07-06T08:53:34;14.60;14.40
8152;DHT22;4117;53.622;9.958;2022-07-06T08:56:01;14.60;17.10
8152;DHT22;4117;53.622;9.958;2022-07-06T08:58:28;14.60;18.90
8152;DHT22;4117;53.622;9.958;2022-07-06T09:00:57;14.60;19.00
8152;DHT22;4117;53.622;9.958;2022-07-06T09:03:24;14.60;19.00
8152;DHT22;4117;53.622;9.958;2022-07-06T09:05:52;14.70;19.10
8152;DHT22;4117;53.622;9.958;2022-07-06T09:08:19;14.60;12.50
8152;DHT22;4117;53.622;9.958;2022-07-06T09:10:47;14.70;14.70
8152;DHT22;4117;53.622;9.958;2022-07-06T09:13:14;14.70;14.10
8152;DHT22;4117;53.622;9.958;2022-07-06T09:15:41;14.80;13.80
8152;DHT22;4117;53.622;9.958;2022-07-06T09:18:09;14.90;10.10
8152;DHT22;4117;53.622;9.958;2022-07-06T09:20:36;14.90;8.50
8152;DHT22;4117;53.622;9.958;2022-07-06T09:23:04;15.00;8.50
8152;DHT22;4117;53.622;9.958;2022-07-06T09:25:32;15.00;8.50
8152;DHT22;4117;53.622;9.958;2022-07-06T09:27:59;15.10;8.60
8152;DHT22;4117;53.622;9.958;2022-07-06T09:30:27;15.10;5.80
8152;DHT22;4117;53.622;9.958;2022-07-06T09:32:55;15.10;4.80
8152;DHT22;4117;53.622;9.958;2022-07-06T09:35:25;15.10;3.00
8152;DHT22;4117;53.622;9.958;2022-07-06T09:38:04;15.10;5.10
8152;DHT22;4117;53.622;9.958;2022-07-06T09:40:33;15.10;1.00
8152;DHT22;4117;53.622;9.958;2022-07-06T09:43:11;15.10;1.00
8152;DHT22;4117;53.622;9.958;2022-07-06T09:45:39;15.10;1.00
8152;DHT22;4117;53.622;9.958;2022-07-06T09:48:09;15.20;1.00
8152;DHT22;4117;53.622;9.958;2022-07-06T09:50:42;15.20;2.20
8152;DHT22;4117;53.622;9.958;2022-07-06T09:53:10;15.30;1.00
8152;DHT22;4117;53.622;9.958;2022-07-06T09:55:37;15.30;1.00
8152;DHT22;4117;53.622;9.958;2022-07-06T09:58:04;15.40;1.00
8152;DHT22;4117;53.622;9.958;2022-07-06T10:00:31;15.40;1.00
8152;DHT22;4117;53.622;9.958;2022-07-06T10:02:59;15.40;1.00
8152;DHT22;4117;53.622;9.958;2022-07-06T10:05:27;15.40;1.00
8152;DHT22;4117;53.622;9.958;2022-07-06T10:07:59;15.40;1.00
8152;DHT22;4117;53.622;9.958;2022-07-06T10:10:27;15.40;1.00
8152;DHT22;4117;53.622;9.958;2022-07-06T10:12:56;15.10;1.00
8152;DHT22;4117;53.622;9.958;2022-07-06T10:15:25;14.90;1.00
8152;DHT22;4117;53.622;9.958;2022-07-06T10:17:53;14.90;1.00
8152;DHT22;4117;53.622;9.958;2022-07-06T10:20:21;14.80;1.00
8152;DHT22;4117;53.622;9.958;2022-07-06T10:22:48;14.80;1.00
8152;DHT22;4117;53.622;9.958;2022-07-06T10:25:18;14.70;1.00
8152;DHT22;4117;53.622;9.958;2022-07-06T10:27:46;14.70;1.00
8152;DHT22;4117;53.622;9.958;2022-07-06T10:30:14;14.70;1.00
8152;DHT22;4117;53.622;9.958;2022-07-06T10:32:43;14.70;1.00
8152;DHT22;4117;53.622;9.958;2022-07-06T10:35:10;14.70;1.00
8152;DHT22;4117;53.622;9.958;2022-07-06T10:37:37;14.70;1.00
8152;DHT22;4117;53.622;9.958;2022-07-06T10:40:06;14.70;1.00
8152;DHT22;4117;53.622;9.958;2022-07-06T10:42:56;14.70;1.00
8152;DHT22;4117;53.622;9.958;2022-07-06T10:45:51;14.70;1.00
8152;DHT22;4117;53.622;9.958;2022-07-06T10:48:19;14.70;1.00
8152;DHT22;4117;53.622;9.958;2022-07-06T10:50:51;14.70;1.00
8152;DHT22;4117;53.622;9.958;2022-07-06T10:53:22;14.80;1.00
8152;DHT22;4117;53.622;9.958;2022-07-06T10:55:50;14.80;1.00
8152;DHT22;4117;53.622;9.958;2022-07-06T10:58:37;14.80;1.00
8152;DHT22;4117;53.622;9.958;2022-07-06T11:01:06;14.90;1.00
8152;DHT22;4117;53.622;9.958;2022-07-06T11:03:35;14.90;1.00
8152;DHT22;4117;53.622;9.958;2022-07-06T11:06:06;15.00;1.00
8152;DHT22;4117;53.622;9.958;2022-07-06T11:08:48;15.00;1.00
8152;DHT22;4117;53.622;9.958;2022-07-06T11:11:17;15.20;1.00
8152;DHT22;4117;53.622;9.958;2022-07-06T11:13:53;15.30;1.00
8152;DHT22;4117;53.622;9.958;2022-07-06T11:16:21;15.30;1.00
8152;DHT22;4117;53.622;9.958;2022-07-06T11:18:50;15.50;1.00
8152;DHT22;4117;53.622;9.958;2022-07-06T11:21:18;15.50;1.00
8152;DHT22;4117;53.622;9.958;2022-07-06T11:23:47;15.70;1.00
8152;DHT22;4117;53.622;9.958;2022-07-06T11:26:15;15.90;1.00
8152;DHT22;4117;53.622;9.958;2022-07-06T11:28:43;16.00;1.00
8152;DHT22;4117;53.622;9.958;2022-07-06T11:31:13;16.00;1.00
8152;DHT22;4117;53.622;9.958;2022-07-06T11:33:40;16.00;1.00
8152;DHT22;4117;53.622;9.958;2022-07-06T11:36:14;15.90;1.00
8152;DHT22;4117;53.622;9.958;2022-07-06T11:38:42;15.90;1.00
8152;DHT22;4117;53.622;9.958;2022-07-06T11:41:09;15.90;1.00
8152;DHT22;4117;53.622;9.958;2022-07-06T11:43:39;15.80;1.00
8152;DHT22;4117;53.622;9.958;2022-07-06T11:46:23;15.90;1.00
8152;DHT22;4117;53.622;9.958;2022-07-06T11:48:53;16.00;1.00
8152;DHT22;4117;53.622;9.958;2022-07-06T11:51:20;16.10;1.00
8152;DHT22;4117;53.622;9.958;2022-07-06T11:53:49;16.10;1.00
8152;DHT22;4117;53.622;9.958;2022-07-06T11:56:17;16.20;1.00
8152;DHT22;4117;53.622;9.958;2022-07-06T11:58:49;16.40;1.00
8152;DHT22;4117;53.622;9.958;2022-07-06T12:01:16;16.50;1.00
8152;DHT22;4117;53.622;9.958;2022-07-06T12:03:45;16.50;1.00
8152;DHT22;4117;53.622;9.958;2022-07-06T12:06:17;16.60;1.00
8152;DHT22;4117;53.622;9.958;2022-07-06T12:08:46;16.70;1.00
8152;DHT22;4117;53.622;9.958;2022-07-06T12:11:21;16.80;1.00
8152;DHT22;4117;53.622;9.958;2022-07-06T12:13:49;17.00;1.00
8152;DHT22;4117;53.622;9.958;2022-07-06T12:16:16;17.20;1.00
8152;DHT22;4117;53.622;9.958;2022-07-06T12:18:47;17.20;1.00
8152;DHT22;4117;53.622;9.958;2022-07-06T12:21:15;17.20;1.00
8152;DHT22;4117;53.622;9.958;2022-07-06T12:23:45;17.30;1.00
8152;DHT22;4117;53.622;9.958;2022-07-06T12:26:13;17.40;1.00
8152;DHT22;4117;53.622;9.958;2022-07-06T12:28:40;17.40;1.00
8152;DHT22;4117;53.622;9.958;2022-07-06T12:31:08;17.20;1.00
8152;DHT22;4117;53.622;9.958;2022-07-06T12:33:36;17.00;1.00
8152;DHT22;4117;53.622;9.958;2022-07-06T12:36:12;16.90;1.00
8152;DHT22;4117;53.622;9.958;2022-07-06T12:38:45;16.90;1.00
8152;DHT22;4117;53.622;9.958;2022-07-06T12:41:27;17.00;1.00
8152;DHT22;4117;53.622;9.958;2022-07-06T12:44:06;17.30;1.00
8152;DHT22;4117;53.622;9.958;2022-07-06T12:46:35;17.50;1.00
8152;DHT22;4117;53.622;9.958;2022-07-06T12:49:10;17.60;1.00
8152;DHT22;4117;53.622;9.958;2022-07-06T12:51:58;17.30;1.00
8152;DHT22;4117;53.622;9.958;2022-07-06T12:54:27;17.20;1.00
8152;DHT22;4117;53.622;9.958;2022-07-06T12:57:13;17.10;1.00
8152;DHT22;4117;53.622;9.958;2022-07-06T12:59:42;17.10;1.00
8152;DHT22;4117;53.622;9.958;2022-07-06T13:02:17;17.00;1.00
8152;DHT22;4117;53.622;9.958;2022-07-06T13:04:54;17.10;1.00
8152;DHT22;4117;53.622;9.958;2022-07-06T13:07:23;17.10;1.00
8152;DHT22;4117;53.622;9.958;2022-07-06T13:09:51;17.30;1.00
8152;DHT22;4117;53.622;9.958;2022-07-06T13:12:18;17.30;1.00
8152;DHT22;4117;53.622;9.958;2022-07-06T13:14:45;17.40;1.00
8152;DHT22;4117;53.622;9.958;2022-07-06T13:17:12;17.50;1.00
8152;DHT22;4117;53.622;9.958;2022-07-06T13:19:38;17.70;1.00
8152;DHT22;4117;53.622;9.958;2022-07-06T13:22:05;17.80;1.00
8152;DHT22;4117;53.622;9.958;2022-07-06T13:24:34;17.90;1.00
8152;DHT22;4117;53.622;9.958;2022-07-06T13:27:01;18.00;1.00
8152;DHT22;4117;53.622;9.958;2022-07-06T13:29:28;18.10;1.00
8152;DHT22;4117;53.622;9.958;2022-07-06T13:31:55;18.00;1.00
8152;DHT22;4117;53.622;9.958;2022-07-06T13:34:22;18.00;1.00
8152;DHT22;4117;53.622;9.958;2022-07-06T13:36:49;18.10;1.00
8152;DHT22;4117;53.622;9.958;2022-07-06T13:39:16;18.20;1.00
8152;DHT22;4117;53.622;9.958;2022-07-06T13:41:44;18.30;1.00
8152;DHT22;4117;53.622;9.958;2022-07-06T13:44:12;18.40;1.00
8152;DHT22;4117;53.622;9.958;2022-07-06T13:46:39;18.20;1.00
8152;DHT22;4117;53.622;9.958;2022-07-06T13:49:06;18.10;1.00
8152;DHT22;4117;53.622;9.958;2022-07-06T13:51:33;18.20;1.00
8152;DHT22;4117;53.622;9.958;2022-07-06T13:54:00;18.10;1.00
8152;DHT22;4117;53.622;9.958;2022-07-06T13:56:27;18.30;1.00
8152;DHT22;4117;53.622;9.958;2022-07-06T13:58:55;18.40;1.00
8152;DHT22;4117;53.622;9.958;2022-07-06T14:01:23;18.50;1.00
8152;DHT22;4117;53.622;9.958;2022-07-06T14:03:50;18.50;1.00
8152;DHT22;4117;53.622;9.958;2022-07-06T14:06:17;18.50;1.00
8152;DHT22;4117;53.622;9.958;2022-07-06T14:08:45;18.50;1.00
8152;DHT22;4117;53.622;9.958;2022-07-06T14:11:13;18.60;1.00
8152;DHT22;4117;53.622;9.958;2022-07-06T14:13:40;18.60;1.00
8152;DHT22;4117;53.622;9.958;2022-07-06T14:16:09;18.80;1.00
8152;DHT22;4117;53.622;9.958;2022-07-06T14:18:36;18.80;1.00
8152;DHT22;4117;53.622;9.958;2022-07-06T14:21:03;18.80;1.00
8152;DHT22;4117;53.622;9.958;2022-07-06T14:23:31;18.70;1.00
8152;DHT22;4117;53.622;9.958;2022-07-06T14:25:58;18.60;1.00
8152;DHT22;4117;53.622;9.958;2022-07-06T14:28:25;18.50;1.00
8152;DHT22;4117;53.622;9.958;2022-07-06T14:30:52;18.40;1.00
8152;DHT22;4117;53.622;9.958;2022-07-06T14:33:21;18.50;1.00
8152;DHT22;4117;53.622;9.958;2022-07-06T14:35:49;18.40;1.00
8152;DHT22;4117;53.622;9.958;2022-07-06T14:38:18;18.40;1.00
8152;DHT22;4117;53.622;9.958;2022-07-06T14:40:46;18.40;1.00
8152;DHT22;4117;53.622;9.958;2022-07-06T14:43:14;18.30;1.00
8152;DHT22;4117;53.622;9.958;2022-07-06T14:45:43;18.40;1.00
8152;DHT22;4117;53.622;9.958;2022-07-06T14:48:10;18.50;1.00
8152;DHT22;4117;53.622;9.958;2022-07-06T14:50:38;18.50;1.00
8152;DHT22;4117;53.622;9.958;2022-07-06T14:53:05;18.60;1.00
8152;DHT22;4117;53.622;9.958;2022-07-06T14:55:32;18.50;1.00
8152;DHT22;4117;53.622;9.958;2022-07-06T14:57:59;18.40;1.00
8152;DHT22;4117;53.622;9.958;2022-07-06T15:00:26;18.50;1.00
8152;DHT22;4117;53.622;9.958;2022-07-06T15:02:53;18.60;1.00
8152;DHT22;4117;53.622;9.958;2022-07-06T15:05:20;18.60;1.00
8152;DHT22;4117;53.622;9.958;2022-07-06T15:07:48;18.70;1.00
8152;DHT22;4117;53.622;9.958;2022-07-06T15:10:15;18.80;1.00
8152;DHT22;4117;53.622;9.958;2022-07-06T15:12:42;18.70;1.00
8152;DHT22;4117;53.622;9.958;2022-07-06T15:15:10;18.70;1.00
8152;DHT22;4117;53.622;9.958;2022-07-06T15:17:37;18.60;1.00
8152;DHT22;4117;53.622;9.958;2022-07-06T15:20:04;18.60;1.00
8152;DHT22;4117;53.622;9.958;2022-07-06T15:22:31;18.60;1.00
8152;DHT22;4117;53.622;9.958;2022-07-06T15:25:00;18.50;1.00
8152;DHT22;4117;53.622;9.958;2022-07-06T15:27:26;18.40;1.00
8152;DHT22;4117;53.622;9.958;2022-07-06T15:29:55;18.40;1.00
8152;DHT22;4117;53.622;9.958;2022-07-06T15:32:22;18.30;1.00
8152;DHT22;4117;53.622;9.958;2022-07-06T15:34:49;18.20;1.00
8152;DHT22;4117;53.622;9.958;2022-07-06T15:37:15;18.20;1.00
8152;DHT22;4117;53.622;9.958;2022-07-06T15:39:42;18.20;1.00
8152;DHT22;4117;53.622;9.958;2022-07-06T15:42:11;18.20;1.00
8152;DHT22;4117;53.622;9.958;2022-07-06T15:44:38;18.20;1.00
8152;DHT22;4117;53.622;9.958;2022-07-06T15:47:06;18.20;1.00
8152;DHT22;4117;53.622;9.958;2022-07-06T15:49:33;18.20;1.00
8152;DHT22;4117;53.622;9.958;2022-07-06T15:52:01;18.20;1.00
8152;DHT22;4117;53.622;9.958;2022-07-06T15:54:28;18.40;1.00
8152;DHT22;4117;53.622;9.958;2022-07-06T15:56:55;18.60;1.00
8152;DHT22;4117;53.622;9.958;2022-07-06T15:59:23;18.80;1.00
8152;DHT22;4117;53.622;9.958;2022-07-06T16:01:50;18.90;1.00
8152;DHT22;4117;53.622;9.958;2022-07-06T16:04:17;19.00;1.00
8152;DHT22;4117;53.622;9.958;2022-07-06T16:06:44;19.00;1.00
8152;DHT22;4117;53.622;9.958;2022-07-06T16:09:11;19.00;1.00
8152;DHT22;4117;53.622;9.958;2022-07-06T16:11:38;19.00;1.00
8152;DHT22;4117;53.622;9.958;2022-07-06T16:14:05;19.00;1.00
8152;DHT22;4117;53.622;9.958;2022-07-06T16:16:33;19.00;1.00
8152;DHT22;4117;53.622;9.958;2022-07-06T16:19:00;19.00;1.00
8152;DHT22;4117;53.622;9.958;2022-07-06T16:21:28;19.00;1.00